Time;durP1;ratioP1;P1;durP2;ratioP2;P2;SDS_P1;SDS_P2;PMS_P1;PMS_P2;Temp;Humidity;BMP_temperature;BMP_pressure;BME280_temperature;BME280_humidity;BME280_pressure;Samples;Min_cycle;Max_cycle;Signal;HPM_P1;HPM_P2
2022/01/12 00:00:20;;;;;;;27.33;18.70;;;3.60;99.90;;;;;;5117583;28;20172;-56
2022/01/12 00:02:46;;;;;;;28.47;18.87;;;3.50;99.90;;;;;;5116977;28;20219;-57
2022/01/12 00:05:12;;;;;;;30.40;17.75;;;3.50;99.90;;;;;;5117222;28;20653;-55
2022/01/12 00:07:38;;;;;;;28.55;17.05;;;3.40;99.90;;;;;;5116766;28;20215;-55
2022/01/12 00:10:04;;;;;;;25.87;17.73;;;3.40;99.90;;;;;;5117093;28;20255;-56
2022/01/12 00:12:30;;;;;;;26.42;17.83;;;3.40;99.90;;;;;;5117075;28;20172;-55
2022/01/12 00:14:56;;;;;;;28.50;18.50;;;3.40;99.90;;;;;;5116714;28;20179;-55
2022/01/12 00:17:21;;;;;;;26.02;18.27;;;3.40;99.90;;;;;;5116785;28;20188;-55
2022/01/12 00:19:47;;;;;;;28.55;18.80;;;3.50;99.90;;;;;;5117197;28;20185;-57
2022/01/12 00:22:13;;;;;;;26.15;17.60;;;3.50;99.90;;;;;;5116074;28;20176;-56
2022/01/12 00:25:02;;;;;;;26.38;17.80;;;3.50;99.90;;;;;;5116758;28;20208;-57
2022/01/12 00:33:14;;;;;;;27.67;17.92;;;3.60;99.90;;;;;;5117021;28;20639;-55
2022/01/12 00:35:43;;;;;;;27.75;17.95;;;3.60;99.90;;;;;;5116628;28;20627;-55
2022/01/12 00:38:10;;;;;;;29.17;18.98;;;3.70;99.90;;;;;;5115308;28;20183;-56
2022/01/12 00:40:44;;;;;;;27.27;18.77;;;3.50;99.90;;;;;;5116708;28;20169;-55
2022/01/12 00:43:11;;;;;;;26.20;19.10;;;3.50;99.90;;;;;;5116532;28;20175;-57
2022/01/12 00:45:41;;;;;;;30.08;19.48;;;3.50;99.90;;;;;;5116282;28;20630;-57
2022/01/12 00:48:08;;;;;;;29.58;19.23;;;3.50;99.90;;;;;;5115301;28;20172;-55
2022/01/12 00:50:34;;;;;;;27.60;19.03;;;3.60;99.90;;;;;;5116255;28;20180;-56
2022/01/12 00:53:00;;;;;;;28.02;18.70;;;3.70;99.90;;;;;;5116330;28;20172;-57
2022/01/12 00:55:25;;;;;;;29.42;19.50;;;3.80;99.90;;;;;;5116202;28;20511;-55
2022/01/12 00:57:51;;;;;;;29.37;20.53;;;3.70;99.90;;;;;;5116220;28;20260;-56
2022/01/12 01:00:20;;;;;;;30.30;19.00;;;3.50;99.90;;;;;;5116005;28;20237;-56
2022/01/12 01:02:45;;;;;;;29.00;18.77;;;3.50;99.90;;;;;;5115818;28;20168;-55
2022/01/12 01:05:11;;;;;;;29.23;19.50;;;3.60;99.90;;;;;;5115924;28;20236;-56
2022/01/12 01:07:37;;;;;;;29.23;20.02;;;3.70;99.90;;;;;;5115953;28;20262;-55
2022/01/12 01:10:10;;;;;;;29.60;19.57;;;3.70;99.90;;;;;;5115926;28;20279;-56
2022/01/12 01:12:37;;;;;;;28.98;19.63;;;3.70;99.90;;;;;;5116014;28;20160;-54
2022/01/12 01:15:08;;;;;;;31.05;19.98;;;3.70;99.90;;;;;;5115888;28;20173;-56
2022/01/12 01:25:45;;;;;;;33.05;20.35;;;3.30;99.90;;;;;;5115638;28;20175;-56
2022/01/12 01:28:12;;;;;;;28.83;19.38;;;3.40;99.90;;;;;;5115343;28;20584;-56
2022/01/12 01:30:40;;;;;;;33.13;21.13;;;3.50;99.90;;;;;;5115608;28;20171;-55
2022/01/12 01:33:08;;;;;;;35.30;20.98;;;3.60;99.90;;;;;;5115553;28;20195;-56
2022/01/12 01:35:40;;;;;;;35.37;21.83;;;3.50;99.90;;;;;;5115410;28;20181;-57
2022/01/12 01:38:07;;;;;;;35.10;21.17;;;3.40;99.90;;;;;;5115517;28;20248;-56
2022/01/12 01:40:37;;;;;;;32.97;22.27;;;3.60;99.90;;;;;;5114090;28;20648;-55
2022/01/12 01:53:50;;;;;;;33.80;21.60;;;3.60;99.90;;;;;;5115206;28;20224;-56
2022/01/12 01:56:18;;;;;;;37.00;22.03;;;3.50;99.90;;;;;;5114967;28;20181;-55
2022/01/12 01:58:45;;;;;;;35.17;21.20;;;3.60;99.90;;;;;;5114983;28;20526;-55
2022/01/12 02:01:10;;;;;;;36.70;22.25;;;3.50;99.90;;;;;;5114956;28;20180;-57
2022/01/12 02:03:36;;;;;;;34.77;22.27;;;3.40;99.90;;;;;;5114020;28;20184;-56
2022/01/12 02:06:07;;;;;;;35.57;21.80;;;3.30;99.90;;;;;;5114808;28;20209;-55
2022/01/12 02:08:32;;;;;;;33.20;21.17;;;3.40;99.90;;;;;;5114492;28;20172;-56
2022/01/12 02:10:59;;;;;;;37.30;23.23;;;3.30;99.90;;;;;;5097590;28;20179;-57
2022/01/12 02:13:25;;;;;;;36.72;22.80;;;3.30;99.90;;;;;;5114297;28;20255;-55
2022/01/12 02:15:53;;;;;;;34.50;21.33;;;3.40;99.90;;;;;;5114462;28;20178;-56
2022/01/12 02:40:27;;;;;;;38.13;22.43;;;3.10;99.90;;;;;;5114356;28;20196;-55
2022/01/12 02:43:09;;;;;;;39.00;23.40;;;3.10;99.90;;;;;;5113208;28;20176;-56
2022/01/12 02:53:43;;;;;;;39.87;23.80;;;3.00;99.90;;;;;;5114140;28;20580;-56
2022/01/12 02:56:13;;;;;;;42.20;23.10;;;3.00;99.90;;;;;;5114100;28;20259;-56
2022/01/12 02:58:41;;;;;;;40.97;24.92;;;3.00;99.90;;;;;;5113999;28;20176;-56
2022/01/12 03:03:42;;;;;;;38.03;23.25;;;3.00;99.90;;;;;;5114072;28;20196;-55
2022/01/12 03:06:09;;;;;;;36.38;23.92;;;3.10;99.90;;;;;;5113802;28;20733;-55
2022/01/12 03:08:37;;;;;;;40.07;24.10;;;3.30;99.90;;;;;;5114421;28;20260;-57
2022/01/12 03:11:07;;;;;;;38.97;23.80;;;3.10;99.90;;;;;;5113569;28;20182;-55
2022/01/12 03:13:33;;;;;;;41.03;25.80;;;3.20;99.90;;;;;;5095719;28;20168;-56
2022/01/12 03:16:00;;;;;;;40.07;24.33;;;3.20;99.90;;;;;;5113714;28;20181;-57
2022/01/12 03:18:26;;;;;;;40.17;24.27;;;3.30;99.90;;;;;;5113960;28;20247;-56
2022/01/12 03:20:53;;;;;;;42.42;24.38;;;3.30;99.90;;;;;;5113789;28;20193;-55
2022/01/12 03:23:19;;;;;;;43.22;25.33;;;3.30;99.90;;;;;;5113835;28;20172;-55
2022/01/12 03:25:45;;;;;;;41.72;24.20;;;3.30;99.90;;;;;;5117326;28;20260;-56
2022/01/12 03:28:11;;;;;;;43.53;26.63;;;3.30;99.90;;;;;;5117977;28;20177;-55
2022/01/12 03:30:53;;;;;;;39.63;25.33;;;3.30;99.90;;;;;;5117942;28;20240;-56
2022/01/12 03:38:48;;;;;;;37.57;23.27;;;3.40;99.90;;;;;;5117514;28;20175;-57
2022/01/12 03:41:14;;;;;;;40.55;25.20;;;3.40;99.90;;;;;;5117738;28;20317;-57
2022/01/12 03:43:40;;;;;;;39.40;24.17;;;3.40;99.90;;;;;;5116431;28;20685;-57
2022/01/12 03:46:06;;;;;;;40.22;23.13;;;3.30;99.90;;;;;;5116130;28;20566;-56
2022/01/12 03:48:32;;;;;;;38.55;24.30;;;3.20;99.90;;;;;;5116686;28;20183;-55
2022/01/12 03:50:58;;;;;;;39.05;23.17;;;3.30;99.90;;;;;;5116081;28;20176;-56
2022/01/12 03:53:24;;;;;;;40.63;23.85;;;3.30;99.90;;;;;;5116557;28;20507;-57
2022/01/12 03:55:50;;;;;;;42.65;24.20;;;3.30;99.90;;;;;;5117711;28;20622;-56
2022/01/12 03:58:16;;;;;;;43.13;23.70;;;3.20;99.90;;;;;;5117634;28;20172;-56
2022/01/12 04:00:41;;;;;;;39.10;23.45;;;3.20;99.90;;;;;;5117300;28;20238;-56
2022/01/12 04:03:08;;;;;;;39.75;25.20;;;3.20;99.90;;;;;;5117013;28;20186;-56
2022/01/12 04:08:20;;;;;;;37.90;23.67;;;3.40;99.90;;;;;;5116517;28;20253;-57
2022/01/12 04:11:06;;;;;;;37.45;22.98;;;3.30;99.90;;;;;;5116455;28;20656;-57
2022/01/12 04:13:32;;;;;;;36.17;22.30;;;3.30;99.90;;;;;;5116445;28;20664;-56
2022/01/12 04:16:03;;;;;;;37.15;22.60;;;3.30;99.90;;;;;;5115667;28;20184;-57
2022/01/12 04:18:29;;;;;;;36.53;22.77;;;3.40;99.90;;;;;;5115541;28;20204;-56
2022/01/12 04:20:56;;;;;;;37.10;23.27;;;3.30;99.90;;;;;;5115731;28;20172;-56
2022/01/12 04:23:23;;;;;;;36.88;23.08;;;3.30;99.90;;;;;;5114177;28;20180;-56
2022/01/12 04:25:52;;;;;;;32.30;21.60;;;3.30;99.90;;;;;;5115489;28;20191;-57
2022/01/12 04:28:20;;;;;;;34.47;22.10;;;3.30;99.90;;;;;;5115636;28;20170;-56
2022/01/12 04:30:47;;;;;;;35.35;22.77;;;3.40;99.90;;;;;;5115475;28;20184;-56
2022/01/12 04:33:14;;;;;;;35.47;21.55;;;3.40;99.90;;;;;;5115512;28;20183;-56
2022/01/12 04:35:47;;;;;;;33.23;21.63;;;3.40;99.90;;;;;;5115065;28;20268;-56
2022/01/12 04:38:13;;;;;;;36.35;22.33;;;3.50;99.90;;;;;;5115763;28;20207;-56
2022/01/12 04:40:39;;;;;;;35.72;22.17;;;3.60;99.90;;;;;;5115095;28;20165;-56
2022/01/12 04:43:07;;;;;;;35.42;22.13;;;3.50;99.90;;;;;;5115423;28;20176;-56
2022/01/12 04:50:50;;;;;;;34.17;21.70;;;3.40;99.90;;;;;;5115226;28;20181;-56
2022/01/12 04:53:18;;;;;;;35.67;22.33;;;3.40;99.90;;;;;;5114930;28;20202;-56
2022/01/12 04:55:45;;;;;;;42.23;23.57;;;3.50;99.90;;;;;;5114061;28;20176;-56
2022/01/12 04:58:11;;;;;;;37.92;23.50;;;3.50;99.90;;;;;;5115112;28;20169;-56
2022/01/12 05:00:38;;;;;;;41.40;25.15;;;3.60;99.90;;;;;;5115091;28;20188;-56
2022/01/12 05:09:30;;;;;;;40.15;23.67;;;3.50;99.90;;;;;;5115199;28;20226;-58
2022/01/12 05:14:04;;;;;;;38.20;23.67;;;3.50;99.90;;;;;;5115008;28;20251;-56
2022/01/12 05:16:30;;;;;;;41.35;24.83;;;3.50;99.90;;;;;;5075842;28;1093092;-56
2022/01/12 05:18:57;;;;;;;36.60;23.60;;;3.50;99.90;;;;;;5115069;28;20181;-55
2022/01/12 05:21:23;;;;;;;37.40;23.43;;;3.50;99.90;;;;;;5115796;28;20267;-55
2022/01/12 05:23:50;;;;;;;38.33;22.58;;;3.50;99.90;;;;;;5115770;28;20610;-54
2022/01/12 05:26:16;;;;;;;40.65;23.67;;;3.50;99.90;;;;;;5115885;28;20292;-56
2022/01/12 05:28:41;;;;;;;40.80;24.23;;;3.60;99.90;;;;;;5115665;28;20177;-55
2022/01/12 05:31:09;;;;;;;40.75;24.42;;;3.60;99.90;;;;;;5115885;28;20537;-55
2022/01/12 05:33:35;;;;;;;41.42;24.20;;;3.60;99.90;;;;;;5115653;28;20698;-58
2022/01/12 05:36:04;;;;;;;38.95;24.40;;;3.60;99.90;;;;;;5114216;28;20184;-55
2022/01/12 05:38:30;;;;;;;39.15;24.42;;;3.70;99.90;;;;;;5115607;28;20180;-56
2022/01/12 05:41:00;;;;;;;40.92;24.27;;;3.60;99.90;;;;;;5113335;28;20701;-55
2022/01/12 05:43:29;;;;;;;39.20;24.17;;;3.70;99.90;;;;;;5117092;28;20176;-56
2022/01/12 05:45:58;;;;;;;37.47;22.80;;;3.70;99.90;;;;;;5115869;28;20177;-56
2022/01/12 05:51:08;;;;;;;42.45;24.50;;;3.60;99.90;;;;;;5115234;28;20175;-56
2022/01/12 05:53:34;;;;;;;46.33;26.10;;;3.60;99.90;;;;;;5115381;28;20177;-58
2022/01/12 05:55:59;;;;;;;42.03;25.00;;;3.50;99.90;;;;;;5115119;28;20637;-56
2022/01/12 05:58:25;;;;;;;45.88;25.02;;;3.50;99.90;;;;;;5114532;28;20656;-56
2022/01/12 06:00:51;;;;;;;39.58;24.33;;;3.50;99.90;;;;;;5113679;28;20184;-57
2022/01/12 06:03:17;;;;;;;44.23;24.77;;;3.50;99.90;;;;;;5112505;28;20191;-56
2022/01/12 06:05:42;;;;;;;36.58;22.85;;;3.60;99.90;;;;;;5112537;28;20687;-57
2022/01/12 06:08:08;;;;;;;41.90;23.95;;;3.60;99.90;;;;;;5112676;28;20226;-56
2022/01/12 06:10:33;;;;;;;37.92;23.50;;;3.70;99.90;;;;;;5113825;28;20184;-56
2022/01/12 06:12:59;;;;;;;39.97;23.55;;;3.70;99.90;;;;;;5113546;28;20183;-56
2022/01/12 06:15:25;;;;;;;42.13;24.38;;;3.70;99.90;;;;;;5113213;28;20181;-56
2022/01/12 06:17:51;;;;;;;44.10;24.95;;;3.60;99.90;;;;;;5112448;27;20660;-57
2022/01/12 06:20:17;;;;;;;39.15;23.95;;;3.60;99.90;;;;;;5114340;27;20180;-56
2022/01/12 06:22:42;;;;;;;41.88;26.52;;;3.70;99.90;;;;;;5114389;28;20218;-57
2022/01/12 06:25:15;;;;;;;43.05;25.17;;;3.70;99.90;;;;;;5114475;28;20180;-55
2022/01/12 06:27:50;;;;;;;41.00;24.98;;;3.70;99.90;;;;;;5114419;28;20256;-56
2022/01/12 06:32:56;;;;;;;40.67;25.83;;;3.70;99.90;;;;;;5114422;28;20156;-56
2022/01/12 06:35:22;;;;;;;41.90;25.80;;;3.60;99.90;;;;;;5113846;28;20642;-56
2022/01/12 06:37:48;;;;;;;42.72;24.85;;;3.70;99.90;;;;;;5114403;28;20255;-56
2022/01/12 06:40:16;;;;;;;40.90;24.55;;;3.70;99.90;;;;;;5113929;28;20188;-55
2022/01/12 06:42:42;;;;;;;39.03;23.45;;;3.80;99.90;;;;;;5113988;28;20200;-55
2022/01/12 06:45:08;;;;;;;40.97;24.13;;;3.80;99.90;;;;;;5114525;28;20617;-56
2022/01/12 06:47:34;;;;;;;44.25;24.42;;;3.80;99.90;;;;;;5114241;28;20204;-56
2022/01/12 06:49:59;;;;;;;40.13;24.35;;;3.80;99.90;;;;;;5114159;28;20183;-56
2022/01/12 06:52:25;;;;;;;43.22;25.05;;;3.80;99.90;;;;;;5114380;28;20177;-57
2022/01/12 06:54:51;;;;;;;39.38;25.15;;;3.80;99.90;;;;;;5114131;28;20373;-57
2022/01/12 06:57:17;;;;;;;40.20;24.45;;;3.90;99.90;;;;;;5114059;28;20188;-57
2022/01/12 06:59:44;;;;;;;41.22;24.75;;;3.90;99.90;;;;;;5113921;28;20607;-57
2022/01/12 07:02:09;;;;;;;40.53;25.38;;;3.90;99.90;;;;;;5114057;28;20179;-56
2022/01/12 07:04:35;;;;;;;44.83;25.73;;;4.00;99.90;;;;;;5113676;28;20177;-55
2022/01/12 07:07:01;;;;;;;39.53;25.13;;;3.90;99.90;;;;;;5113833;28;20549;-56
2022/01/12 07:09:27;;;;;;;39.90;24.58;;;4.00;99.90;;;;;;5113599;28;20504;-56
2022/01/12 07:11:53;;;;;;;40.58;25.17;;;3.90;99.90;;;;;;5113890;28;20172;-56
2022/01/12 07:14:19;;;;;;;41.38;24.63;;;3.90;99.90;;;;;;5113654;28;20208;-57
2022/01/12 07:16:45;;;;;;;41.88;23.80;;;3.90;99.90;;;;;;5112193;28;20252;-56
2022/01/12 07:19:11;;;;;;;38.72;24.60;;;3.90;99.90;;;;;;5112953;28;20180;-56
2022/01/12 07:21:37;;;;;;;40.17;24.90;;;3.90;99.90;;;;;;5112501;28;20188;-56
2022/01/12 07:24:03;;;;;;;46.10;25.50;;;3.90;99.90;;;;;;5113334;28;20263;-56
2022/01/12 07:26:28;;;;;;;39.45;24.77;;;3.90;99.90;;;;;;5113755;28;20245;-57
2022/01/12 07:28:56;;;;;;;46.85;26.98;;;3.90;99.90;;;;;;5114302;28;20268;-55
2022/01/12 07:31:22;;;;;;;41.25;25.38;;;3.80;99.90;;;;;;5113845;28;20183;-57
2022/01/12 07:33:47;;;;;;;42.67;24.90;;;3.90;99.90;;;;;;5113513;28;20173;-57
2022/01/12 07:36:14;;;;;;;39.05;24.02;;;4.00;99.90;;;;;;5112221;28;20180;-55
2022/01/12 07:38:40;;;;;;;39.80;24.02;;;3.90;99.90;;;;;;5113516;28;20177;-57
2022/01/12 07:41:06;;;;;;;41.67;25.05;;;3.80;99.90;;;;;;5113685;28;20177;-56
2022/01/12 07:43:31;;;;;;;46.05;26.73;;;3.80;99.90;;;;;;5112070;28;20635;-55
2022/01/12 07:45:57;;;;;;;44.70;27.55;;;3.90;99.90;;;;;;5113005;28;20673;-56
2022/01/12 07:48:23;;;;;;;44.67;24.65;;;3.80;99.90;;;;;;5113528;28;20177;-56
2022/01/12 07:50:49;;;;;;;41.65;24.02;;;3.90;99.90;;;;;;5113406;28;20169;-54
2022/01/12 07:53:14;;;;;;;40.97;25.33;;;3.90;99.90;;;;;;5113413;28;20179;-56
2022/01/12 07:55:40;;;;;;;42.30;24.77;;;3.90;99.90;;;;;;5112058;28;20535;-57
2022/01/12 07:58:06;;;;;;;49.33;26.63;;;3.90;99.90;;;;;;5113564;28;20184;-57
2022/01/12 08:00:31;;;;;;;46.83;26.70;;;4.00;99.90;;;;;;5113310;28;20176;-56
2022/01/12 08:02:57;;;;;;;44.67;26.40;;;4.00;99.90;;;;;;5113068;28;20524;-56
2022/01/12 08:05:23;;;;;;;47.58;26.13;;;4.00;99.90;;;;;;5113239;28;20185;-56
2022/01/12 08:07:49;;;;;;;45.10;27.45;;;4.00;99.90;;;;;;5113144;28;20200;-56
2022/01/12 08:10:15;;;;;;;48.05;28.67;;;4.00;99.90;;;;;;5114103;28;20184;-58
2022/01/12 08:12:42;;;;;;;43.00;26.48;;;3.90;99.90;;;;;;5116943;28;20635;-55
2022/01/12 08:15:09;;;;;;;44.63;25.98;;;4.00;99.90;;;;;;5115820;28;20176;-56
2022/01/12 08:17:36;;;;;;;44.58;26.50;;;4.00;99.90;;;;;;5116932;28;20541;-55
2022/01/12 08:20:05;;;;;;;51.15;28.73;;;4.10;99.90;;;;;;5116816;28;20187;-56
2022/01/12 08:22:31;;;;;;;34.55;20.92;;;4.10;99.90;;;;;;5116833;28;20178;-55
2022/01/12 08:24:56;;;;;;;40.47;25.15;;;4.10;99.90;;;;;;5115399;28;20288;-55
2022/01/12 08:27:22;;;;;;;50.50;27.50;;;4.10;99.90;;;;;;5116718;28;20208;-55
2022/01/12 08:29:58;;;;;;;47.05;26.50;;;4.20;99.90;;;;;;5116740;28;20260;-56
2022/01/12 08:32:24;;;;;;;43.72;26.58;;;4.20;99.90;;;;;;5115625;28;20569;-55
2022/01/12 08:34:49;;;;;;;44.80;27.33;;;4.30;99.90;;;;;;5116839;28;20204;-55
2022/01/12 08:37:15;;;;;;;46.00;27.63;;;4.30;99.90;;;;;;5115230;28;20185;-56
2022/01/12 08:39:40;;;;;;;49.22;28.33;;;4.30;99.90;;;;;;5116227;28;20636;-56
2022/01/12 08:42:06;;;;;;;44.10;27.02;;;4.30;99.90;;;;;;5116188;28;20180;-56
2022/01/12 08:44:34;;;;;;;46.72;27.92;;;4.20;99.90;;;;;;5114938;28;20722;-54
2022/01/12 08:47:00;;;;;;;45.20;27.52;;;4.30;99.90;;;;;;5116024;28;20220;-56
2022/01/12 08:49:26;;;;;;;46.90;26.98;;;4.30;99.90;;;;;;5116294;28;20172;-55
2022/01/12 08:51:52;;;;;;;46.88;27.83;;;4.40;99.90;;;;;;5116309;28;20255;-55
2022/01/12 08:54:18;;;;;;;49.67;27.02;;;4.40;99.90;;;;;;5116473;28;20177;-55
2022/01/12 08:56:44;;;;;;;50.70;29.27;;;4.40;99.90;;;;;;5115858;28;20646;-55
2022/01/12 08:59:10;;;;;;;48.53;27.73;;;4.40;99.90;;;;;;5116219;28;20169;-55
2022/01/12 09:01:36;;;;;;;53.45;30.58;;;4.40;99.90;;;;;;5115597;28;20173;-56
2022/01/12 09:04:01;;;;;;;48.75;28.48;;;4.40;99.90;;;;;;5116011;27;20569;-55
2022/01/12 09:06:27;;;;;;;49.28;28.77;;;4.40;99.90;;;;;;5115976;28;20251;-55
2022/01/12 09:08:53;;;;;;;54.08;29.45;;;4.40;99.90;;;;;;5115373;28;20188;-56
2022/01/12 09:11:18;;;;;;;50.53;28.75;;;4.50;99.90;;;;;;5116576;28;20318;-55
2022/01/12 09:13:45;;;;;;;54.30;28.70;;;4.50;99.90;;;;;;5119177;28;20181;-57
2022/01/12 09:16:12;;;;;;;52.38;31.13;;;4.60;99.90;;;;;;5117015;28;20200;-55
2022/01/12 09:18:39;;;;;;;44.10;27.90;;;4.60;99.90;;;;;;5114612;28;20538;-56
2022/01/12 09:21:06;;;;;;;52.80;29.63;;;4.70;99.90;;;;;;5115287;28;20244;-56
2022/01/12 09:23:32;;;;;;;55.17;30.60;;;4.70;99.90;;;;;;5114857;28;20579;-55
2022/01/12 09:25:58;;;;;;;54.10;29.48;;;4.80;99.90;;;;;;5115549;28;20221;-57
2022/01/12 09:28:24;;;;;;;51.22;29.63;;;4.60;99.90;;;;;;5115613;28;20185;-57
2022/01/12 09:30:51;;;;;;;53.15;28.75;;;4.60;99.90;;;;;;5115507;28;20172;-56
2022/01/12 09:33:17;;;;;;;48.10;28.65;;;4.70;99.90;;;;;;5115429;28;20189;-56
2022/01/12 09:35:45;;;;;;;54.00;31.63;;;4.80;99.90;;;;;;5115308;28;20181;-55
2022/01/12 09:38:11;;;;;;;63.40;32.75;;;4.80;99.90;;;;;;5115376;28;20225;-56
2022/01/12 09:40:39;;;;;;;55.50;31.20;;;4.90;99.90;;;;;;5115283;28;20180;-57
2022/01/12 09:43:05;;;;;;;56.28;31.80;;;4.90;99.90;;;;;;5115231;28;20178;-57
2022/01/12 09:45:32;;;;;;;54.75;31.95;;;4.90;99.90;;;;;;5115084;28;20207;-57
2022/01/12 09:47:58;;;;;;;54.58;30.45;;;5.00;99.90;;;;;;5114727;28;20209;-56
2022/01/12 09:50:24;;;;;;;54.38;33.28;;;5.00;99.90;;;;;;5115201;28;20185;-55
2022/01/12 09:52:50;;;;;;;54.17;31.55;;;5.10;99.90;;;;;;5115171;27;20165;-56
2022/01/12 09:55:18;;;;;;;55.42;33.00;;;5.10;99.90;;;;;;5114938;28;20303;-56
2022/01/12 09:57:43;;;;;;;54.10;31.48;;;5.20;99.90;;;;;;5115073;28;20514;-54
2022/01/12 10:00:11;;;;;;;60.13;35.28;;;5.20;99.90;;;;;;5114765;28;20170;-56
2022/01/12 10:02:36;;;;;;;61.45;31.38;;;5.30;99.90;;;;;;5114902;28;20604;-56
2022/01/12 10:05:07;;;;;;;54.58;32.22;;;5.40;99.90;;;;;;5114151;28;20176;-56
2022/01/12 10:07:34;;;;;;;56.90;32.05;;;5.30;99.90;;;;;;5114836;28;20184;-56
2022/01/12 10:10:04;;;;;;;63.65;32.92;;;5.40;99.90;;;;;;5113297;28;20173;-57
2022/01/12 10:12:31;;;;;;;54.47;32.17;;;5.40;99.90;;;;;;5114737;28;20149;-57
2022/01/12 10:15:01;;;;;;;69.28;32.70;;;5.40;99.90;;;;;;5113526;28;20184;-55
2022/01/12 10:17:46;;;;;;;57.47;31.85;;;5.40;99.90;;;;;;5114174;28;20201;-56
2022/01/12 10:20:21;;;;;;;56.20;31.52;;;5.50;99.90;;;;;;5114508;28;20169;-56
2022/01/12 10:23:02;;;;;;;53.72;32.00;;;5.50;99.90;;;;;;5114164;27;20633;-56
2022/01/12 10:25:29;;;;;;;75.63;33.58;;;5.50;99.90;;;;;;5114516;28;20640;-55
2022/01/12 10:27:56;;;;;;;73.50;35.17;;;5.50;99.90;;;;;;5114326;28;20251;-56
2022/01/12 10:30:29;;;;;;;60.65;31.88;;;5.50;99.90;;;;;;5114275;28;20177;-56
2022/01/12 10:33:06;;;;;;;69.40;32.55;;;5.60;99.90;;;;;;5113990;28;20165;-55
2022/01/12 10:35:36;;;;;;;62.90;32.35;;;5.70;99.90;;;;;;5114425;28;20168;-56
2022/01/12 10:38:11;;;;;;;61.00;30.40;;;5.50;99.90;;;;;;5114171;28;20174;-57
2022/01/12 10:40:58;;;;;;;64.88;30.10;;;5.50;99.90;;;;;;5114271;28;20207;-56
2022/01/12 10:43:28;;;;;;;59.88;29.48;;;5.50;99.90;;;;;;5114195;28;20259;-55
2022/01/12 10:45:54;;;;;;;69.07;37.33;;;5.50;99.90;;;;;;5113932;28;20576;-55
2022/01/12 10:48:20;;;;;;;61.30;31.02;;;5.40;99.90;;;;;;5112776;28;20269;-55
2022/01/12 10:50:59;;;;;;;63.03;31.80;;;5.20;99.90;;;;;;5114076;28;20272;-56
2022/01/12 10:53:28;;;;;;;60.40;34.70;;;5.30;99.90;;;;;;5114328;28;20168;-55
2022/01/12 10:56:06;;;;;;;123.88;39.58;;;5.30;99.90;;;;;;5113943;28;20260;-56
2022/01/12 10:58:32;;;;;;;66.47;31.83;;;5.30;99.90;;;;;;5114156;28;20514;-56
2022/01/12 11:00:58;;;;;;;62.22;32.97;;;5.50;99.90;;;;;;5114840;28;20533;-57
2022/01/12 11:03:24;;;;;;;61.78;31.23;;;5.50;99.90;;;;;;5116947;28;20206;-55
2022/01/12 11:05:52;;;;;;;84.60;35.35;;;5.40;99.90;;;;;;5113604;28;20263;-55
2022/01/12 11:08:20;;;;;;;58.03;31.40;;;5.40;99.90;;;;;;5113359;28;20284;-56
2022/01/12 11:10:46;;;;;;;59.90;29.15;;;5.40;99.90;;;;;;5113798;28;20188;-56
2022/01/12 11:13:12;;;;;;;58.78;30.02;;;5.40;99.90;;;;;;5112665;28;20184;-56
2022/01/12 11:15:38;;;;;;;56.67;36.00;;;5.40;99.90;;;;;;5113742;28;20655;-56
2022/01/12 11:18:04;;;;;;;52.22;30.58;;;5.50;99.90;;;;;;5113225;28;20196;-55
2022/01/12 11:20:31;;;;;;;64.30;32.05;;;5.30;99.90;;;;;;5113671;28;20175;-56
2022/01/12 11:23:11;;;;;;;75.78;41.20;;;5.20;99.90;;;;;;5113735;28;20212;-57
2022/01/12 11:25:43;;;;;;;55.38;28.77;;;5.20;99.90;;;;;;5113565;28;20186;-56
2022/01/12 11:28:25;;;;;;;62.03;33.55;;;5.30;99.90;;;;;;5113559;28;20192;-56
2022/01/12 11:30:50;;;;;;;56.50;32.20;;;5.40;99.90;;;;;;5113444;28;20165;-57
2022/01/12 11:33:19;;;;;;;82.70;34.70;;;5.50;99.90;;;;;;5113606;28;20643;-57
2022/01/12 11:35:51;;;;;;;54.35;30.90;;;5.60;99.90;;;;;;5113600;28;20165;-57
2022/01/12 11:38:26;;;;;;;70.13;33.92;;;5.60;99.90;;;;;;5113537;28;20708;-57
2022/01/12 11:40:57;;;;;;;69.90;34.47;;;5.60;99.90;;;;;;5113658;28;20533;-55
2022/01/12 11:43:29;;;;;;;75.25;38.53;;;5.50;99.90;;;;;;5113554;28;20191;-57
2022/01/12 11:46:00;;;;;;;72.88;36.35;;;5.30;99.90;;;;;;5115072;28;20301;-56
2022/01/12 11:48:51;;;;;;;76.70;36.22;;;5.40;99.90;;;;;;5117409;28;20275;-55
2022/01/12 11:51:19;;;;;;;70.68;36.40;;;5.30;99.90;;;;;;5107210;27;20192;-56
2022/01/12 11:53:49;;;;;;;65.40;35.05;;;5.30;99.90;;;;;;5117458;28;20175;-56
2022/01/12 11:56:18;;;;;;;68.38;34.92;;;5.20;99.90;;;;;;5117018;28;20167;-56
2022/01/12 11:58:50;;;;;;;67.65;38.05;;;5.30;99.90;;;;;;5117268;28;20267;-55
2022/01/12 12:01:16;;;;;;;73.68;38.63;;;5.40;99.90;;;;;;5117353;28;20583;-56
2022/01/12 12:03:42;;;;;;;74.30;38.40;;;5.40;99.90;;;;;;5116986;28;20259;-56
2022/01/12 12:06:20;;;;;;;88.25;35.85;;;5.10;99.90;;;;;;5117039;28;20255;-56
2022/01/12 12:09:09;;;;;;;68.68;34.92;;;5.10;99.90;;;;;;5117128;28;20255;-56
2022/01/12 12:11:34;;;;;;;79.43;40.72;;;5.30;99.90;;;;;;5117203;28;20168;-56
2022/01/12 12:14:05;;;;;;;76.38;40.40;;;5.40;99.90;;;;;;5115853;28;20574;-56
2022/01/12 12:16:33;;;;;;;84.35;44.40;;;5.50;99.90;;;;;;5116710;28;20219;-56
2022/01/12 12:19:02;;;;;;;78.20;44.95;;;5.60;99.90;;;;;;5117245;28;20179;-57
2022/01/12 12:21:27;;;;;;;77.38;46.38;;;5.70;99.90;;;;;;5117002;28;20180;-56
2022/01/12 12:23:53;;;;;;;78.75;40.97;;;5.80;99.90;;;;;;5116961;28;20168;-55
2022/01/12 12:26:19;;;;;;;77.97;41.00;;;5.80;99.90;;;;;;5116603;28;20178;-55
2022/01/12 12:28:55;;;;;;;83.10;40.90;;;5.70;99.90;;;;;;5116495;28;20199;-55
2022/01/12 12:31:25;;;;;;;77.60;41.42;;;5.90;99.90;;;;;;5116748;28;20317;-55
2022/01/12 12:34:04;;;;;;;72.50;42.13;;;5.80;99.90;;;;;;5116762;28;20610;-55
2022/01/12 12:36:31;;;;;;;71.25;38.83;;;5.90;99.90;;;;;;5116642;27;20221;-56
2022/01/12 12:39:28;;;;;;;71.28;39.35;;;6.00;99.90;;;;;;5116593;28;20219;-56
2022/01/12 12:41:54;;;;;;;76.20;40.58;;;6.00;99.90;;;;;;5099847;28;20182;-55
2022/01/12 12:44:23;;;;;;;80.82;48.80;;;6.10;99.90;;;;;;5116398;28;20233;-56
2022/01/12 12:46:50;;;;;;;77.60;44.47;;;6.20;99.90;;;;;;5118487;28;20298;-57
2022/01/12 12:49:17;;;;;;;78.20;41.03;;;6.20;99.90;;;;;;5120137;28;20214;-56
2022/01/12 12:51:42;;;;;;;68.93;41.80;;;6.20;99.90;;;;;;5116151;28;20648;-57
2022/01/12 12:54:11;;;;;;;75.15;40.75;;;6.00;99.90;;;;;;5116383;28;20172;-56
2022/01/12 12:56:40;;;;;;;73.00;41.65;;;6.00;99.90;;;;;;5115921;28;20608;-55
2022/01/12 12:59:07;;;;;;;71.28;39.17;;;5.70;99.90;;;;;;5116098;28;20180;-57
2022/01/12 13:01:33;;;;;;;71.65;38.22;;;5.70;99.90;;;;;;5116168;28;20207;-55
2022/01/12 13:04:00;;;;;;;66.78;38.83;;;5.80;99.90;;;;;;5116059;28;20201;-56
2022/01/12 13:06:35;;;;;;;69.45;38.92;;;5.90;99.90;;;;;;5116028;28;20253;-55
2022/01/12 13:09:05;;;;;;;98.75;47.90;;;6.00;99.90;;;;;;5116129;27;20176;-56
2022/01/12 13:11:35;;;;;;;76.97;42.92;;;6.00;99.90;;;;;;5116024;28;20149;-56
2022/01/12 13:14:09;;;;;;;69.90;40.97;;;6.10;99.90;;;;;;5115941;28;20165;-56
2022/01/12 13:16:44;;;;;;;77.57;45.00;;;6.00;99.90;;;;;;5115695;28;20196;-56
2022/01/12 13:19:21;;;;;;;51.70;29.30;;;6.20;99.90;;;;;;5116002;28;20247;-55
2022/01/12 13:21:48;;;;;;;70.68;39.70;;;6.10;99.90;;;;;;5115713;28;20197;-55
2022/01/12 13:24:14;;;;;;;64.38;36.47;;;5.90;99.90;;;;;;5115748;28;20519;-56
2022/01/12 13:26:40;;;;;;;67.00;38.30;;;5.90;99.90;;;;;;5115506;28;20664;-57
2022/01/12 13:29:07;;;;;;;69.72;40.08;;;5.90;99.90;;;;;;5115341;28;20261;-57
2022/01/12 13:31:33;;;;;;;70.20;36.33;;;5.90;99.90;;;;;;5115519;28;20162;-56
2022/01/12 13:34:01;;;;;;;61.17;36.95;;;5.70;99.90;;;;;;5115719;28;20172;-56
2022/01/12 13:36:29;;;;;;;66.15;37.22;;;5.50;99.90;;;;;;5115450;28;20189;-56
2022/01/12 13:38:59;;;;;;;71.72;38.50;;;5.40;99.90;;;;;;5115397;28;20169;-54
2022/01/12 13:41:33;;;;;;;68.30;36.97;;;5.50;99.90;;;;;;5115480;28;20168;-55
2022/01/12 13:44:05;;;;;;;62.33;38.35;;;5.70;99.90;;;;;;5115443;28;20160;-57
2022/01/12 13:46:36;;;;;;;62.70;35.40;;;5.70;99.90;;;;;;5113935;28;20230;-55
2022/01/12 13:52:03;;;;;;;63.85;35.10;;;5.90;99.90;;;;;;5115195;28;20203;-57
2022/01/12 13:54:40;;;;;;;72.53;36.47;;;5.90;99.90;;;;;;5114400;28;20638;-55
2022/01/12 13:57:09;;;;;;;73.55;38.70;;;5.90;99.90;;;;;;5114939;28;20179;-55
2022/01/12 13:59:49;;;;;;;69.38;37.40;;;6.00;99.90;;;;;;5114886;28;20610;-56
2022/01/12 14:02:18;;;;;;;67.88;37.58;;;5.90;99.90;;;;;;5115020;28;20169;-54
2022/01/12 14:04:53;;;;;;;70.72;36.80;;;5.90;99.90;;;;;;5114917;28;20208;-56
2022/01/12 14:07:23;;;;;;;71.80;38.47;;;6.00;99.90;;;;;;5114659;28;20196;-56